sensor_id;sensor_type;location;lat;lon;timestamp;P1;durP1;ratioP1;P2;durP2;ratioP2
15104;SDS011;7653;48.994;9.212;2023-08-31T00:01:48;4.73;;;2.73;;
15104;SDS011;7653;48.994;9.212;2023-08-31T00:04:14;4.40;;;2.80;;
15104;SDS011;7653;48.994;9.212;2023-08-31T00:06:40;2.87;;;2.30;;
15104;SDS011;7653;48.994;9.212;2023-08-31T00:09:06;4.63;;;2.73;;
15104;SDS011;7653;48.994;9.212;2023-08-31T00:11:34;4.20;;;2.50;;
15104;SDS011;7653;48.994;9.212;2023-08-31T00:14:00;3.93;;;2.17;;
15104;SDS011;7653;48.994;9.212;2023-08-31T00:16:26;3.37;;;2.90;;
15104;SDS011;7653;48.994;9.212;2023-08-31T00:18:52;3.43;;;2.43;;
15104;SDS011;7653;48.994;9.212;2023-08-31T00:21:19;2.70;;;2.27;;
15104;SDS011;7653;48.994;9.212;2023-08-31T00:23:46;3.37;;;2.70;;
15104;SDS011;7653;48.994;9.212;2023-08-31T00:26:11;2.47;;;2.20;;
15104;SDS011;7653;48.994;9.212;2023-08-31T00:28:37;3.50;;;2.80;;
15104;SDS011;7653;48.994;9.212;2023-08-31T00:31:03;3.37;;;2.50;;
15104;SDS011;7653;48.994;9.212;2023-08-31T00:33:29;6.13;;;2.80;;
15104;SDS011;7653;48.994;9.212;2023-08-31T00:35:55;3.80;;;2.60;;
15104;SDS011;7653;48.994;9.212;2023-08-31T00:38:26;3.83;;;2.60;;
15104;SDS011;7653;48.994;9.212;2023-08-31T00:40:52;2.80;;;2.50;;
15104;SDS011;7653;48.994;9.212;2023-08-31T00:43:19;4.50;;;2.97;;
15104;SDS011;7653;48.994;9.212;2023-08-31T00:45:45;5.93;;;3.10;;
15104;SDS011;7653;48.994;9.212;2023-08-31T00:48:14;6.07;;;2.57;;
15104;SDS011;7653;48.994;9.212;2023-08-31T00:50:42;3.57;;;3.03;;
15104;SDS011;7653;48.994;9.212;2023-08-31T00:53:11;4.70;;;3.10;;
15104;SDS011;7653;48.994;9.212;2023-08-31T00:55:37;4.43;;;3.20;;
15104;SDS011;7653;48.994;9.212;2023-08-31T00:58:05;4.83;;;3.27;;
15104;SDS011;7653;48.994;9.212;2023-08-31T01:09:08;4.73;;;4.00;;
15104;SDS011;7653;48.994;9.212;2023-08-31T01:14:16;5.23;;;3.80;;
15104;SDS011;7653;48.994;9.212;2023-08-31T01:16:44;4.47;;;3.80;;
15104;SDS011;7653;48.994;9.212;2023-08-31T01:21:51;4.00;;;3.53;;
15104;SDS011;7653;48.994;9.212;2023-08-31T01:24:19;4.70;;;3.53;;
15104;SDS011;7653;48.994;9.212;2023-08-31T01:26:47;4.73;;;3.07;;
15104;SDS011;7653;48.994;9.212;2023-08-31T01:29:12;5.37;;;3.77;;
15104;SDS011;7653;48.994;9.212;2023-08-31T01:31:42;5.43;;;3.73;;
15104;SDS011;7653;48.994;9.212;2023-08-31T01:34:08;3.90;;;3.50;;
15104;SDS011;7653;48.994;9.212;2023-08-31T01:36:34;3.93;;;3.13;;
15104;SDS011;7653;48.994;9.212;2023-08-31T01:39:10;5.70;;;4.00;;
15104;SDS011;7653;48.994;9.212;2023-08-31T01:41:43;4.00;;;3.47;;
15104;SDS011;7653;48.994;9.212;2023-08-31T01:44:20;3.57;;;3.27;;
15104;SDS011;7653;48.994;9.212;2023-08-31T01:46:46;5.97;;;4.03;;
15104;SDS011;7653;48.994;9.212;2023-08-31T01:49:19;6.47;;;3.87;;
15104;SDS011;7653;48.994;9.212;2023-08-31T01:51:46;5.50;;;3.90;;
15104;SDS011;7653;48.994;9.212;2023-08-31T01:54:12;5.80;;;3.80;;
15104;SDS011;7653;48.994;9.212;2023-08-31T01:56:37;5.67;;;4.40;;
15104;SDS011;7653;48.994;9.212;2023-08-31T01:59:03;5.67;;;4.40;;
15104;SDS011;7653;48.994;9.212;2023-08-31T02:01:29;6.27;;;4.07;;
15104;SDS011;7653;48.994;9.212;2023-08-31T02:03:57;4.20;;;3.80;;
15104;SDS011;7653;48.994;9.212;2023-08-31T02:06:22;6.33;;;4.57;;
15104;SDS011;7653;48.994;9.212;2023-08-31T02:08:48;6.30;;;4.10;;
15104;SDS011;7653;48.994;9.212;2023-08-31T02:11:14;5.47;;;3.80;;
15104;SDS011;7653;48.994;9.212;2023-08-31T02:13:39;4.77;;;3.80;;
15104;SDS011;7653;48.994;9.212;2023-08-31T02:16:06;4.63;;;3.70;;
15104;SDS011;7653;48.994;9.212;2023-08-31T02:18:32;5.37;;;4.13;;
15104;SDS011;7653;48.994;9.212;2023-08-31T02:20:58;4.53;;;3.63;;
15104;SDS011;7653;48.994;9.212;2023-08-31T02:23:23;6.13;;;3.53;;
15104;SDS011;7653;48.994;9.212;2023-08-31T02:25:49;4.67;;;4.00;;
15104;SDS011;7653;48.994;9.212;2023-08-31T02:28:14;4.97;;;3.60;;
15104;SDS011;7653;48.994;9.212;2023-08-31T02:30:43;4.50;;;3.90;;
15104;SDS011;7653;48.994;9.212;2023-08-31T02:33:09;5.57;;;4.00;;
15104;SDS011;7653;48.994;9.212;2023-08-31T02:35:35;6.60;;;3.83;;
15104;SDS011;7653;48.994;9.212;2023-08-31T02:38:00;6.40;;;3.70;;
15104;SDS011;7653;48.994;9.212;2023-08-31T02:40:27;4.20;;;3.50;;
15104;SDS011;7653;48.994;9.212;2023-08-31T02:42:53;4.67;;;3.90;;
15104;SDS011;7653;48.994;9.212;2023-08-31T02:45:18;5.00;;;3.67;;
15104;SDS011;7653;48.994;9.212;2023-08-31T02:47:44;5.50;;;4.10;;
15104;SDS011;7653;48.994;9.212;2023-08-31T02:50:09;6.23;;;3.60;;
15104;SDS011;7653;48.994;9.212;2023-08-31T02:52:35;6.43;;;3.70;;
15104;SDS011;7653;48.994;9.212;2023-08-31T02:55:01;5.33;;;3.60;;
15104;SDS011;7653;48.994;9.212;2023-08-31T02:57:26;4.97;;;3.83;;
15104;SDS011;7653;48.994;9.212;2023-08-31T02:59:52;4.97;;;3.47;;
15104;SDS011;7653;48.994;9.212;2023-08-31T03:02:18;4.40;;;3.40;;
15104;SDS011;7653;48.994;9.212;2023-08-31T03:04:43;4.20;;;3.80;;
15104;SDS011;7653;48.994;9.212;2023-08-31T03:07:09;5.47;;;3.57;;
15104;SDS011;7653;48.994;9.212;2023-08-31T03:09:38;4.80;;;3.70;;
15104;SDS011;7653;48.994;9.212;2023-08-31T03:12:04;5.50;;;3.90;;
15104;SDS011;7653;48.994;9.212;2023-08-31T03:14:30;5.20;;;4.20;;
15104;SDS011;7653;48.994;9.212;2023-08-31T03:16:56;6.77;;;4.23;;
15104;SDS011;7653;48.994;9.212;2023-08-31T03:19:22;4.77;;;4.33;;
15104;SDS011;7653;48.994;9.212;2023-08-31T03:21:47;5.90;;;4.07;;
15104;SDS011;7653;48.994;9.212;2023-08-31T03:24:13;4.73;;;4.30;;
15104;SDS011;7653;48.994;9.212;2023-08-31T03:26:39;6.90;;;3.90;;
15104;SDS011;7653;48.994;9.212;2023-08-31T03:29:04;4.83;;;3.93;;
15104;SDS011;7653;48.994;9.212;2023-08-31T03:31:30;6.47;;;3.90;;
15104;SDS011;7653;48.994;9.212;2023-08-31T03:33:56;5.17;;;4.10;;
15104;SDS011;7653;48.994;9.212;2023-08-31T03:36:22;7.27;;;4.10;;
15104;SDS011;7653;48.994;9.212;2023-08-31T03:38:48;5.43;;;4.03;;
15104;SDS011;7653;48.994;9.212;2023-08-31T03:41:14;5.53;;;3.93;;
15104;SDS011;7653;48.994;9.212;2023-08-31T03:43:40;5.23;;;3.70;;
15104;SDS011;7653;48.994;9.212;2023-08-31T03:46:06;6.27;;;3.70;;
15104;SDS011;7653;48.994;9.212;2023-08-31T03:48:32;5.97;;;3.90;;
15104;SDS011;7653;48.994;9.212;2023-08-31T03:50:57;6.37;;;4.07;;
15104;SDS011;7653;48.994;9.212;2023-08-31T03:53:23;8.00;;;3.90;;
15104;SDS011;7653;48.994;9.212;2023-08-31T03:55:49;7.13;;;4.10;;
15104;SDS011;7653;48.994;9.212;2023-08-31T03:58:15;8.00;;;4.20;;
15104;SDS011;7653;48.994;9.212;2023-08-31T04:00:40;7.10;;;4.37;;
15104;SDS011;7653;48.994;9.212;2023-08-31T04:03:07;5.00;;;4.17;;
15104;SDS011;7653;48.994;9.212;2023-08-31T04:05:34;6.17;;;4.23;;
15104;SDS011;7653;48.994;9.212;2023-08-31T04:08:00;6.40;;;4.27;;
15104;SDS011;7653;48.994;9.212;2023-08-31T04:10:26;8.20;;;4.47;;
15104;SDS011;7653;48.994;9.212;2023-08-31T04:12:52;6.53;;;3.87;;
15104;SDS011;7653;48.994;9.212;2023-08-31T04:15:18;6.13;;;4.30;;
15104;SDS011;7653;48.994;9.212;2023-08-31T04:17:44;5.27;;;3.70;;
15104;SDS011;7653;48.994;9.212;2023-08-31T04:20:10;5.60;;;4.07;;
15104;SDS011;7653;48.994;9.212;2023-08-31T04:22:36;6.27;;;3.40;;
15104;SDS011;7653;48.994;9.212;2023-08-31T04:25:02;6.83;;;4.10;;
15104;SDS011;7653;48.994;9.212;2023-08-31T04:27:28;6.40;;;4.40;;
15104;SDS011;7653;48.994;9.212;2023-08-31T04:30:01;7.57;;;4.50;;
15104;SDS011;7653;48.994;9.212;2023-08-31T04:32:27;10.43;;;4.20;;
15104;SDS011;7653;48.994;9.212;2023-08-31T04:34:53;5.80;;;3.93;;
15104;SDS011;7653;48.994;9.212;2023-08-31T04:37:18;4.53;;;4.13;;
15104;SDS011;7653;48.994;9.212;2023-08-31T04:39:46;5.10;;;4.33;;
15104;SDS011;7653;48.994;9.212;2023-08-31T04:42:11;5.43;;;4.33;;
15104;SDS011;7653;48.994;9.212;2023-08-31T04:44:37;8.67;;;4.10;;
15104;SDS011;7653;48.994;9.212;2023-08-31T04:47:02;7.83;;;4.50;;
15104;SDS011;7653;48.994;9.212;2023-08-31T04:49:29;6.33;;;4.07;;
15104;SDS011;7653;48.994;9.212;2023-08-31T04:51:55;5.83;;;4.13;;
15104;SDS011;7653;48.994;9.212;2023-08-31T04:54:21;6.93;;;4.10;;
15104;SDS011;7653;48.994;9.212;2023-08-31T04:56:46;7.53;;;3.60;;
15104;SDS011;7653;48.994;9.212;2023-08-31T04:59:12;7.80;;;3.87;;
15104;SDS011;7653;48.994;9.212;2023-08-31T05:01:38;7.17;;;4.00;;
15104;SDS011;7653;48.994;9.212;2023-08-31T05:04:03;5.47;;;3.57;;
15104;SDS011;7653;48.994;9.212;2023-08-31T05:06:29;6.73;;;3.93;;
15104;SDS011;7653;48.994;9.212;2023-08-31T05:08:55;4.70;;;3.73;;
15104;SDS011;7653;48.994;9.212;2023-08-31T05:11:21;8.53;;;4.60;;
15104;SDS011;7653;48.994;9.212;2023-08-31T05:13:47;13.63;;;4.77;;
15104;SDS011;7653;48.994;9.212;2023-08-31T05:16:13;9.27;;;5.13;;
15104;SDS011;7653;48.994;9.212;2023-08-31T05:18:39;7.00;;;4.73;;
15104;SDS011;7653;48.994;9.212;2023-08-31T05:21:05;6.90;;;5.07;;
15104;SDS011;7653;48.994;9.212;2023-08-31T05:23:31;8.30;;;4.63;;
15104;SDS011;7653;48.994;9.212;2023-08-31T05:25:57;7.23;;;4.77;;
15104;SDS011;7653;48.994;9.212;2023-08-31T05:28:23;7.63;;;4.83;;
15104;SDS011;7653;48.994;9.212;2023-08-31T05:30:50;5.90;;;4.67;;
15104;SDS011;7653;48.994;9.212;2023-08-31T05:33:17;8.63;;;4.20;;
15104;SDS011;7653;48.994;9.212;2023-08-31T05:35:43;6.10;;;4.50;;
15104;SDS011;7653;48.994;9.212;2023-08-31T05:38:09;8.13;;;4.33;;
15104;SDS011;7653;48.994;9.212;2023-08-31T05:40:34;5.77;;;4.50;;
15104;SDS011;7653;48.994;9.212;2023-08-31T05:43:00;10.50;;;5.13;;
15104;SDS011;7653;48.994;9.212;2023-08-31T05:45:27;4.97;;;4.33;;
15104;SDS011;7653;48.994;9.212;2023-08-31T05:47:57;8.00;;;4.70;;
15104;SDS011;7653;48.994;9.212;2023-08-31T05:50:22;5.07;;;4.57;;
15104;SDS011;7653;48.994;9.212;2023-08-31T05:52:48;8.87;;;5.20;;
15104;SDS011;7653;48.994;9.212;2023-08-31T05:55:14;7.00;;;4.60;;
15104;SDS011;7653;48.994;9.212;2023-08-31T05:57:39;5.17;;;4.30;;
15104;SDS011;7653;48.994;9.212;2023-08-31T06:00:05;4.87;;;4.37;;
15104;SDS011;7653;48.994;9.212;2023-08-31T06:02:34;4.97;;;4.47;;
15104;SDS011;7653;48.994;9.212;2023-08-31T06:05:00;5.73;;;4.20;;
15104;SDS011;7653;48.994;9.212;2023-08-31T06:07:27;5.70;;;4.07;;
15104;SDS011;7653;48.994;9.212;2023-08-31T06:09:54;6.93;;;4.07;;
15104;SDS011;7653;48.994;9.212;2023-08-31T06:12:20;6.90;;;4.40;;
15104;SDS011;7653;48.994;9.212;2023-08-31T06:14:46;5.83;;;4.70;;
15104;SDS011;7653;48.994;9.212;2023-08-31T06:17:12;5.67;;;4.40;;
15104;SDS011;7653;48.994;9.212;2023-08-31T06:19:38;4.93;;;4.03;;
15104;SDS011;7653;48.994;9.212;2023-08-31T06:22:05;7.03;;;4.20;;
15104;SDS011;7653;48.994;9.212;2023-08-31T06:24:30;5.87;;;4.03;;
15104;SDS011;7653;48.994;9.212;2023-08-31T06:26:57;5.60;;;4.37;;
15104;SDS011;7653;48.994;9.212;2023-08-31T06:29:23;8.37;;;4.67;;
15104;SDS011;7653;48.994;9.212;2023-08-31T06:31:48;4.57;;;4.20;;
15104;SDS011;7653;48.994;9.212;2023-08-31T06:34:14;9.27;;;4.00;;
15104;SDS011;7653;48.994;9.212;2023-08-31T06:36:40;6.17;;;3.93;;
15104;SDS011;7653;48.994;9.212;2023-08-31T06:39:05;4.70;;;3.80;;
15104;SDS011;7653;48.994;9.212;2023-08-31T06:41:31;6.63;;;3.80;;
15104;SDS011;7653;48.994;9.212;2023-08-31T06:43:57;5.40;;;3.40;;
15104;SDS011;7653;48.994;9.212;2023-08-31T06:46:23;7.03;;;3.10;;
15104;SDS011;7653;48.994;9.212;2023-08-31T06:48:48;5.33;;;3.40;;
15104;SDS011;7653;48.994;9.212;2023-08-31T06:51:14;5.80;;;3.10;;
15104;SDS011;7653;48.994;9.212;2023-08-31T06:53:41;3.73;;;2.90;;
15104;SDS011;7653;48.994;9.212;2023-08-31T06:56:08;5.60;;;3.33;;
15104;SDS011;7653;48.994;9.212;2023-08-31T06:58:34;5.40;;;3.27;;
15104;SDS011;7653;48.994;9.212;2023-08-31T07:01:00;6.17;;;3.13;;
15104;SDS011;7653;48.994;9.212;2023-08-31T07:03:26;5.67;;;3.37;;
15104;SDS011;7653;48.994;9.212;2023-08-31T07:05:52;4.80;;;3.13;;
15104;SDS011;7653;48.994;9.212;2023-08-31T07:08:17;5.10;;;3.63;;
15104;SDS011;7653;48.994;9.212;2023-08-31T07:10:43;7.63;;;2.90;;
15104;SDS011;7653;48.994;9.212;2023-08-31T07:13:09;4.57;;;2.73;;
15104;SDS011;7653;48.994;9.212;2023-08-31T07:15:34;4.47;;;2.93;;
15104;SDS011;7653;48.994;9.212;2023-08-31T07:18:00;4.57;;;2.60;;
15104;SDS011;7653;48.994;9.212;2023-08-31T07:20:26;6.80;;;3.00;;
15104;SDS011;7653;48.994;9.212;2023-08-31T07:22:51;5.00;;;2.40;;
15104;SDS011;7653;48.994;9.212;2023-08-31T07:25:17;5.20;;;2.47;;
15104;SDS011;7653;48.994;9.212;2023-08-31T07:27:43;4.07;;;2.13;;
15104;SDS011;7653;48.994;9.212;2023-08-31T07:30:09;3.80;;;2.43;;
15104;SDS011;7653;48.994;9.212;2023-08-31T07:32:35;4.90;;;2.17;;
15104;SDS011;7653;48.994;9.212;2023-08-31T07:35:01;6.17;;;2.20;;
15104;SDS011;7653;48.994;9.212;2023-08-31T07:37:29;7.37;;;2.27;;
15104;SDS011;7653;48.994;9.212;2023-08-31T07:39:55;3.70;;;2.03;;
15104;SDS011;7653;48.994;9.212;2023-08-31T07:42:21;2.20;;;1.27;;
15104;SDS011;7653;48.994;9.212;2023-08-31T07:44:46;1.53;;;1.23;;
15104;SDS011;7653;48.994;9.212;2023-08-31T07:47:12;5.80;;;2.33;;
15104;SDS011;7653;48.994;9.212;2023-08-31T07:49:37;5.50;;;1.83;;
15104;SDS011;7653;48.994;9.212;2023-08-31T07:52:03;3.60;;;2.13;;
15104;SDS011;7653;48.994;9.212;2023-08-31T07:54:29;1.10;;;0.43;;
15104;SDS011;7653;48.994;9.212;2023-08-31T07:56:55;3.83;;;1.67;;
15104;SDS011;7653;48.994;9.212;2023-08-31T07:59:20;3.13;;;1.60;;
15104;SDS011;7653;48.994;9.212;2023-08-31T08:01:47;6.10;;;1.80;;
15104;SDS011;7653;48.994;9.212;2023-08-31T08:04:13;3.87;;;1.70;;
15104;SDS011;7653;48.994;9.212;2023-08-31T08:06:39;4.67;;;1.70;;
15104;SDS011;7653;48.994;9.212;2023-08-31T08:09:05;3.20;;;1.43;;
15104;SDS011;7653;48.994;9.212;2023-08-31T08:11:31;8.13;;;1.90;;
15104;SDS011;7653;48.994;9.212;2023-08-31T08:13:59;3.90;;;1.70;;
15104;SDS011;7653;48.994;9.212;2023-08-31T08:16:25;3.63;;;1.70;;
15104;SDS011;7653;48.994;9.212;2023-08-31T08:18:50;3.77;;;1.97;;
15104;SDS011;7653;48.994;9.212;2023-08-31T08:21:16;3.93;;;1.77;;
15104;SDS011;7653;48.994;9.212;2023-08-31T08:23:41;3.37;;;1.83;;
15104;SDS011;7653;48.994;9.212;2023-08-31T08:26:07;3.27;;;1.37;;
15104;SDS011;7653;48.994;9.212;2023-08-31T08:28:32;2.70;;;1.40;;
15104;SDS011;7653;48.994;9.212;2023-08-31T08:31:00;2.00;;;1.50;;
15104;SDS011;7653;48.994;9.212;2023-08-31T08:33:28;2.60;;;1.70;;
15104;SDS011;7653;48.994;9.212;2023-08-31T08:35:57;2.07;;;1.50;;
15104;SDS011;7653;48.994;9.212;2023-08-31T08:38:25;2.20;;;1.70;;
15104;SDS011;7653;48.994;9.212;2023-08-31T08:40:51;4.23;;;1.80;;
15104;SDS011;7653;48.994;9.212;2023-08-31T08:43:17;3.03;;;1.70;;
15104;SDS011;7653;48.994;9.212;2023-08-31T08:45:49;4.23;;;1.80;;
15104;SDS011;7653;48.994;9.212;2023-08-31T08:48:16;5.63;;;1.67;;
15104;SDS011;7653;48.994;9.212;2023-08-31T08:50:43;3.73;;;1.07;;
15104;SDS011;7653;48.994;9.212;2023-08-31T08:53:10;0.53;;;0.50;;
15104;SDS011;7653;48.994;9.212;2023-08-31T08:55:38;3.23;;;1.07;;
15104;SDS011;7653;48.994;9.212;2023-08-31T08:58:05;4.60;;;1.27;;
15104;SDS011;7653;48.994;9.212;2023-08-31T09:00:31;4.40;;;1.90;;
15104;SDS011;7653;48.994;9.212;2023-08-31T09:02:58;3.77;;;1.80;;
15104;SDS011;7653;48.994;9.212;2023-08-31T09:05:25;6.53;;;2.10;;
15104;SDS011;7653;48.994;9.212;2023-08-31T09:10:34;2.57;;;1.60;;
15104;SDS011;7653;48.994;9.212;2023-08-31T09:13:01;2.67;;;1.30;;
15104;SDS011;7653;48.994;9.212;2023-08-31T09:15:35;5.17;;;1.83;;
15104;SDS011;7653;48.994;9.212;2023-08-31T09:20:57;2.60;;;1.50;;
15104;SDS011;7653;48.994;9.212;2023-08-31T09:23:24;3.50;;;1.50;;
15104;SDS011;7653;48.994;9.212;2023-08-31T09:25:54;5.23;;;1.70;;
15104;SDS011;7653;48.994;9.212;2023-08-31T09:28:21;6.40;;;1.57;;
15104;SDS011;7653;48.994;9.212;2023-08-31T09:31:03;2.40;;;0.90;;
15104;SDS011;7653;48.994;9.212;2023-08-31T09:33:34;0.93;;;0.77;;
15104;SDS011;7653;48.994;9.212;2023-08-31T09:36:01;3.90;;;1.63;;
15104;SDS011;7653;48.994;9.212;2023-08-31T09:38:29;3.37;;;1.20;;
15104;SDS011;7653;48.994;9.212;2023-08-31T09:41:04;4.10;;;1.70;;
15104;SDS011;7653;48.994;9.212;2023-08-31T09:43:33;3.47;;;1.63;;
15104;SDS011;7653;48.994;9.212;2023-08-31T09:45:59;1.73;;;1.07;;
15104;SDS011;7653;48.994;9.212;2023-08-31T09:48:27;2.83;;;1.40;;
15104;SDS011;7653;48.994;9.212;2023-08-31T09:50:54;3.13;;;1.70;;
15104;SDS011;7653;48.994;9.212;2023-08-31T09:53:21;6.70;;;1.80;;
15104;SDS011;7653;48.994;9.212;2023-08-31T09:55:49;4.13;;;1.80;;
15104;SDS011;7653;48.994;9.212;2023-08-31T09:58:18;2.70;;;1.80;;
15104;SDS011;7653;48.994;9.212;2023-08-31T10:00:51;4.13;;;1.70;;
15104;SDS011;7653;48.994;9.212;2023-08-31T10:03:17;3.23;;;1.60;;
15104;SDS011;7653;48.994;9.212;2023-08-31T10:05:48;1.97;;;1.10;;
15104;SDS011;7653;48.994;9.212;2023-08-31T10:08:15;3.43;;;1.03;;
15104;SDS011;7653;48.994;9.212;2023-08-31T10:10:41;4.33;;;1.40;;
15104;SDS011;7653;48.994;9.212;2023-08-31T10:13:07;3.30;;;1.57;;
15104;SDS011;7653;48.994;9.212;2023-08-31T10:15:33;3.30;;;1.30;;
15104;SDS011;7653;48.994;9.212;2023-08-31T10:18:01;2.77;;;1.30;;
15104;SDS011;7653;48.994;9.212;2023-08-31T10:20:28;1.73;;;1.07;;
15104;SDS011;7653;48.994;9.212;2023-08-31T10:22:59;3.00;;;1.50;;
15104;SDS011;7653;48.994;9.212;2023-08-31T10:28:22;1.90;;;1.20;;
15104;SDS011;7653;48.994;9.212;2023-08-31T10:31:05;2.00;;;1.27;;
15104;SDS011;7653;48.994;9.212;2023-08-31T10:35:59;4.00;;;1.73;;
15104;SDS011;7653;48.994;9.212;2023-08-31T10:38:30;1.47;;;0.93;;
15104;SDS011;7653;48.994;9.212;2023-08-31T10:46:26;2.33;;;1.40;;
15104;SDS011;7653;48.994;9.212;2023-08-31T10:48:54;3.87;;;1.33;;
15104;SDS011;7653;48.994;9.212;2023-08-31T10:51:32;3.70;;;1.43;;
15104;SDS011;7653;48.994;9.212;2023-08-31T10:59:25;3.60;;;1.67;;
15104;SDS011;7653;48.994;9.212;2023-08-31T11:01:57;1.43;;;1.00;;
15104;SDS011;7653;48.994;9.212;2023-08-31T11:04:28;5.07;;;1.40;;
15104;SDS011;7653;48.994;9.212;2023-08-31T11:09:45;4.47;;;1.90;;
15104;SDS011;7653;48.994;9.212;2023-08-31T11:12:12;3.13;;;1.63;;
15104;SDS011;7653;48.994;9.212;2023-08-31T11:14:38;4.87;;;1.80;;
15104;SDS011;7653;48.994;9.212;2023-08-31T11:17:04;4.37;;;1.70;;
15104;SDS011;7653;48.994;9.212;2023-08-31T11:19:31;3.43;;;1.67;;
15104;SDS011;7653;48.994;9.212;2023-08-31T11:21:58;4.13;;;1.70;;
15104;SDS011;7653;48.994;9.212;2023-08-31T11:24:25;4.20;;;1.87;;
15104;SDS011;7653;48.994;9.212;2023-08-31T11:26:51;4.03;;;1.70;;
15104;SDS011;7653;48.994;9.212;2023-08-31T11:29:18;4.70;;;1.77;;
15104;SDS011;7653;48.994;9.212;2023-08-31T11:31:44;3.93;;;1.80;;
15104;SDS011;7653;48.994;9.212;2023-08-31T11:34:16;3.70;;;1.80;;
15104;SDS011;7653;48.994;9.212;2023-08-31T11:36:43;4.70;;;1.40;;
15104;SDS011;7653;48.994;9.212;2023-08-31T11:39:10;2.93;;;1.70;;
15104;SDS011;7653;48.994;9.212;2023-08-31T11:41:37;5.10;;;1.90;;
15104;SDS011;7653;48.994;9.212;2023-08-31T11:44:13;0.97;;;0.57;;
15104;SDS011;7653;48.994;9.212;2023-08-31T11:46:43;3.97;;;1.60;;
15104;SDS011;7653;48.994;9.212;2023-08-31T11:49:15;2.43;;;1.13;;
15104;SDS011;7653;48.994;9.212;2023-08-31T11:51:44;4.17;;;1.83;;
15104;SDS011;7653;48.994;9.212;2023-08-31T11:54:10;1.80;;;1.33;;
15104;SDS011;7653;48.994;9.212;2023-08-31T11:56:46;4.13;;;1.67;;
15104;SDS011;7653;48.994;9.212;2023-08-31T11:59:17;4.07;;;1.80;;
15104;SDS011;7653;48.994;9.212;2023-08-31T12:01:45;4.17;;;1.50;;
15104;SDS011;7653;48.994;9.212;2023-08-31T12:04:13;1.27;;;1.00;;
15104;SDS011;7653;48.994;9.212;2023-08-31T12:06:46;5.53;;;1.97;;
15104;SDS011;7653;48.994;9.212;2023-08-31T12:09:13;2.17;;;1.17;;
15104;SDS011;7653;48.994;9.212;2023-08-31T12:11:39;4.33;;;1.27;;
15104;SDS011;7653;48.994;9.212;2023-08-31T12:14:18;7.97;;;2.13;;
15104;SDS011;7653;48.994;9.212;2023-08-31T12:16:48;4.73;;;1.70;;
15104;SDS011;7653;48.994;9.212;2023-08-31T12:19:14;4.80;;;1.73;;
15104;SDS011;7653;48.994;9.212;2023-08-31T12:21:42;2.73;;;1.70;;
15104;SDS011;7653;48.994;9.212;2023-08-31T12:24:09;4.00;;;1.70;;
15104;SDS011;7653;48.994;9.212;2023-08-31T12:26:35;3.07;;;1.60;;
15104;SDS011;7653;48.994;9.212;2023-08-31T12:29:01;3.47;;;1.33;;
15104;SDS011;7653;48.994;9.212;2023-08-31T12:31:29;5.00;;;1.77;;
15104;SDS011;7653;48.994;9.212;2023-08-31T12:33:55;4.17;;;1.77;;
15104;SDS011;7653;48.994;9.212;2023-08-31T12:36:21;3.73;;;1.53;;
15104;SDS011;7653;48.994;9.212;2023-08-31T12:38:46;4.87;;;1.93;;
15104;SDS011;7653;48.994;9.212;2023-08-31T12:41:12;3.90;;;1.87;;
15104;SDS011;7653;48.994;9.212;2023-08-31T12:43:38;0.70;;;0.60;;
15104;SDS011;7653;48.994;9.212;2023-08-31T12:46:03;2.90;;;1.87;;
15104;SDS011;7653;48.994;9.212;2023-08-31T12:48:31;4.87;;;1.90;;
15104;SDS011;7653;48.994;9.212;2023-08-31T12:50:58;5.93;;;2.10;;
15104;SDS011;7653;48.994;9.212;2023-08-31T12:53:23;4.37;;;1.40;;
15104;SDS011;7653;48.994;9.212;2023-08-31T12:55:49;5.90;;;1.83;;
15104;SDS011;7653;48.994;9.212;2023-08-31T12:58:15;3.33;;;1.70;;
15104;SDS011;7653;48.994;9.212;2023-08-31T13:00:41;2.87;;;1.43;;
15104;SDS011;7653;48.994;9.212;2023-08-31T13:03:08;1.77;;;1.33;;
15104;SDS011;7653;48.994;9.212;2023-08-31T13:05:34;2.53;;;1.43;;
15104;SDS011;7653;48.994;9.212;2023-08-31T13:08:03;4.70;;;1.80;;
15104;SDS011;7653;48.994;9.212;2023-08-31T13:10:30;3.47;;;1.60;;
15104;SDS011;7653;48.994;9.212;2023-08-31T13:12:56;5.17;;;1.83;;
15104;SDS011;7653;48.994;9.212;2023-08-31T13:15:21;3.67;;;1.50;;
15104;SDS011;7653;48.994;9.212;2023-08-31T13:17:47;5.07;;;2.27;;
15104;SDS011;7653;48.994;9.212;2023-08-31T13:20:13;5.90;;;2.10;;
15104;SDS011;7653;48.994;9.212;2023-08-31T13:22:38;5.07;;;1.60;;
15104;SDS011;7653;48.994;9.212;2023-08-31T13:25:04;4.50;;;1.20;;
15104;SDS011;7653;48.994;9.212;2023-08-31T13:27:30;3.93;;;1.37;;
15104;SDS011;7653;48.994;9.212;2023-08-31T13:29:58;2.27;;;1.30;;
15104;SDS011;7653;48.994;9.212;2023-08-31T13:32:24;3.63;;;1.70;;
15104;SDS011;7653;48.994;9.212;2023-08-31T13:34:50;1.83;;;1.23;;
15104;SDS011;7653;48.994;9.212;2023-08-31T13:37:16;5.77;;;1.97;;
15104;SDS011;7653;48.994;9.212;2023-08-31T13:39:41;3.17;;;1.57;;
15104;SDS011;7653;48.994;9.212;2023-08-31T13:42:07;3.57;;;1.73;;
15104;SDS011;7653;48.994;9.212;2023-08-31T13:44:33;3.47;;;1.77;;
15104;SDS011;7653;48.994;9.212;2023-08-31T13:47:00;5.83;;;1.80;;
15104;SDS011;7653;48.994;9.212;2023-08-31T13:49:27;3.17;;;1.40;;
15104;SDS011;7653;48.994;9.212;2023-08-31T13:51:53;3.63;;;1.60;;
15104;SDS011;7653;48.994;9.212;2023-08-31T13:54:19;4.60;;;1.80;;
15104;SDS011;7653;48.994;9.212;2023-08-31T13:56:45;4.63;;;1.90;;
15104;SDS011;7653;48.994;9.212;2023-08-31T13:59:10;3.13;;;1.80;;
15104;SDS011;7653;48.994;9.212;2023-08-31T14:01:36;6.27;;;1.63;;
15104;SDS011;7653;48.994;9.212;2023-08-31T14:04:03;6.27;;;2.27;;
15104;SDS011;7653;48.994;9.212;2023-08-31T14:06:29;8.43;;;2.93;;
15104;SDS011;7653;48.994;9.212;2023-08-31T14:08:55;4.13;;;1.77;;
15104;SDS011;7653;48.994;9.212;2023-08-31T14:11:20;8.27;;;2.20;;
15104;SDS011;7653;48.994;9.212;2023-08-31T14:13:46;3.60;;;1.73;;
15104;SDS011;7653;48.994;9.212;2023-08-31T14:16:12;4.40;;;2.00;;
15104;SDS011;7653;48.994;9.212;2023-08-31T14:18:38;3.23;;;1.90;;
15104;SDS011;7653;48.994;9.212;2023-08-31T14:21:03;2.80;;;1.50;;
15104;SDS011;7653;48.994;9.212;2023-08-31T14:23:29;2.03;;;1.50;;
15104;SDS011;7653;48.994;9.212;2023-08-31T14:26:04;3.40;;;1.60;;
15104;SDS011;7653;48.994;9.212;2023-08-31T14:28:31;3.20;;;1.37;;
15104;SDS011;7653;48.994;9.212;2023-08-31T14:30:56;5.93;;;1.83;;
15104;SDS011;7653;48.994;9.212;2023-08-31T14:33:22;4.63;;;1.57;;
15104;SDS011;7653;48.994;9.212;2023-08-31T14:35:49;3.83;;;1.70;;
15104;SDS011;7653;48.994;9.212;2023-08-31T14:38:20;1.63;;;0.97;;
15104;SDS011;7653;48.994;9.212;2023-08-31T14:40:49;4.73;;;1.57;;
15104;SDS011;7653;48.994;9.212;2023-08-31T14:43:16;4.30;;;1.83;;
15104;SDS011;7653;48.994;9.212;2023-08-31T14:45:41;4.13;;;1.80;;
15104;SDS011;7653;48.994;9.212;2023-08-31T14:48:08;2.27;;;1.20;;
15104;SDS011;7653;48.994;9.212;2023-08-31T14:50:33;2.00;;;1.80;;
15104;SDS011;7653;48.994;9.212;2023-08-31T14:52:59;4.13;;;1.90;;
15104;SDS011;7653;48.994;9.212;2023-08-31T14:55:24;4.87;;;2.00;;
15104;SDS011;7653;48.994;9.212;2023-08-31T14:57:50;3.57;;;1.90;;
15104;SDS011;7653;48.994;9.212;2023-08-31T15:00:16;4.47;;;1.60;;
15104;SDS011;7653;48.994;9.212;2023-08-31T15:02:42;3.40;;;1.73;;
15104;SDS011;7653;48.994;9.212;2023-08-31T15:05:08;4.37;;;1.70;;
15104;SDS011;7653;48.994;9.212;2023-08-31T15:07:33;3.27;;;1.47;;
15104;SDS011;7653;48.994;9.212;2023-08-31T15:09:59;5.53;;;1.60;;
15104;SDS011;7653;48.994;9.212;2023-08-31T15:12:26;5.07;;;1.83;;
15104;SDS011;7653;48.994;9.212;2023-08-31T15:14:52;5.20;;;1.90;;
15104;SDS011;7653;48.994;9.212;2023-08-31T15:17:17;4.50;;;1.80;;
15104;SDS011;7653;48.994;9.212;2023-08-31T15:19:46;8.00;;;1.80;;
15104;SDS011;7653;48.994;9.212;2023-08-31T15:22:12;2.20;;;1.57;;
15104;SDS011;7653;48.994;9.212;2023-08-31T15:24:37;6.30;;;2.13;;
15104;SDS011;7653;48.994;9.212;2023-08-31T15:27:05;4.03;;;1.90;;
15104;SDS011;7653;48.994;9.212;2023-08-31T15:29:31;5.00;;;1.77;;
15104;SDS011;7653;48.994;9.212;2023-08-31T15:31:58;4.83;;;2.10;;
15104;SDS011;7653;48.994;9.212;2023-08-31T15:34:24;3.27;;;2.00;;
15104;SDS011;7653;48.994;9.212;2023-08-31T15:36:50;3.87;;;1.53;;